Latest Coastal Weather Observations for Coolangatta (QLD)

IDN60701

Issued at 7:51 am EST Sunday 31 May 2020 (issued every 10 minutes, with the page automatically refreshed every 10 minutes)

About coastal observations | Map of coastal stations | Coastal observations for NSW | Marine services | Other Formats
Station Details ID: 040717 Name: COOLANGATTA Lat: -28.17 Lon: 153.51 Height: 4.0 m
Data from the previous 72 hours. | See also: Recent months at Coolangatta (QLD)

Observations at Coolangatta are collected in the Queensland time zone, which does not include daylight savings during the summer period. Therefore 'Rain since 9am' totals and other values are based on the Queensland time zone.

Date/Time
EST
Wind Sea
Height
m
Swell Vis
km
Cloud Weather Temp
°C
Press
hPa
Rain since
9am
mm
Dir  Spd
kts
Gust
kts
Height
m
Period
s
Dir
31/07:30am S 3 4 - - - - 10 Cloudy - 14.8 1022.5 0.0
31/07:00am S 3 5 - - - - 10 Partly cloudy - 14.1 1022.5 0.0
31/06:30am S 3 4 - - - - 10 - - 13.7 1022.4 0.0
31/06:00am SSW 3 4 - - - - 10 - - 14.4 1022.3 0.0
31/05:30am SW 4 6 - - - - 10 - - 13.4 1021.9 0.0
31/05:00am S 2 3 - - - - 10 - - 14.0 1021.7 0.0
31/04:30am SW 6 7 - - - - 10 - - 14.5 1021.5 0.0
31/04:00am S 4 5 - - - - 10 - - 14.3 1021.4 0.0
31/03:30am S 5 7 - - - - 10 Partly cloudy - 15.1 1021.5 0.0
31/03:00am SSE 6 8 - - - - 10 Mostly clear - 15.6 1021.6 0.0
31/02:30am S 6 8 - - - - 10 Partly cloudy - 16.1 1022.3 0.0
31/02:00am SSW 6 10 - - - - 10 Cloudy - 17.0 1022.7 0.0
31/01:30am SW 5 7 - - - - 10 Partly cloudy - 16.7 1023.1 0.0
31/01:00am SW 5 7 - - - - 10 Cloudy - 15.8 1023.1 0.0
31/12:30am SW 6 7 - - - - 10 Partly cloudy - 15.4 1023.0 0.0
31/12:00am SSW 5 6 - - - - 10 - - 14.4 1022.9 0.0
 
Date/Time
EST
Wind Sea
Height
m
Swell Vis
km
Cloud Weather Temp
°C
Press
hPa
Rain since
9am
mm
Dir  Spd
kts
Gust
kts
Height
m
Period
s
Dir
30/11:30pm SW 5 7 - - - - 10 - - 15.4 1022.9 0.0
30/11:00pm SW 5 7 - - - - 10 - - 15.5 1023.2 0.0
30/10:30pm SSW 6 9 - - - - 10 - - 16.2 1023.2 0.0
30/10:00pm SSW 4 6 - - - - 10 - - 15.6 1023.3 0.0
30/09:30pm CALM 0 3 - - - - 10 - - 14.5 1023.4 0.0
30/09:00pm SSW 4 6 - - - - 10 - - 16.3 1023.5 0.0
30/08:30pm SW 5 6 - - - - 10 Partly cloudy - 16.6 1023.7 0.0
30/08:00pm SSW 3 5 - - - - 10 Partly cloudy - 16.3 1023.7 0.0
30/07:30pm SSW 3 4 - - - - 10 Partly cloudy - 16.7 1023.6 0.0
30/07:00pm SW 4 5 - - - - 10 Partly cloudy - 16.8 1023.6 0.0
30/06:30pm WSW 5 7 - - - - 10 Partly cloudy - 17.1 1023.5 0.0
30/06:00pm SW 6 8 - - - - 10 Cloudy Drizzle 17.2 1023.4 0.0
30/05:30pm SSW 9 13 - - - - 10 Partly cloudy - 17.2 1023.6 0.0
30/05:00pm S 9 13 - - - - 10 Partly cloudy - 17.5 1023.6 0.0
30/04:30pm S 7 11 - - - - 10 Partly cloudy - 20.6 1023.3 0.0
30/04:00pm S 9 13 - - - - 10 - - 20.9 1023.1 0.0
30/03:30pm S 10 15 - - - - 10 Partly cloudy - 21.4 1022.9 0.0
30/03:00pm SSE 10 14 - - - - 10 Mostly clear - 21.1 1022.7 0.0
30/02:30pm S 11 15 - - - - 10 Partly cloudy - 22.2 1022.6 0.0
30/02:00pm SSE 11 14 - - - - 10 Partly cloudy - 22.6 1022.6 0.0
30/01:30pm S 10 15 - - - - 10 Partly cloudy - 23.0 1022.7 0.0
30/01:00pm S 9 13 - - - - 10 Partly cloudy - 21.1 1023.1 0.0
30/12:30pm S 9 15 - - - - 10 Partly cloudy - 22.0 1023.3 0.0
30/12:00pm S 9 13 - - - - 10 Cloudy - 22.1 1023.7 0.0
30/11:30am SSW 9 14 - - - - 10 Partly cloudy - 21.8 1024.1 0.0
30/11:00am SSW 10 14 - - - - 10 - - 21.2 1024.6 0.0
30/10:30am SSW 9 13 - - - - 10 - - 21.2 1024.8 0.0
30/10:00am S 10 19 - - - - 10 - - 20.5 1025.0 0.0
30/09:30am S 10 14 - - - - 10 - - 20.0 1025.3 0.0
30/09:00am SSW 9 14 - - - - 10 - - 19.5 1025.3 0.2
30/08:30am SSW 9 13 - - - - 10 Partly cloudy - 18.3 1025.2 0.2
30/08:00am SSW 10 14 - - - - 10 - - 17.8 1025.1 0.2
30/07:30am SSW 9 12 - - - - 10 - - 17.1 1024.9 0.2
30/07:00am SSW 8 13 - - - - 10 - - 16.4 1024.8 0.2
30/06:30am SSW 8 12 - - - - 10 - - 15.9 1024.5 0.2
30/06:00am SSW 8 12 - - - - 10 Mostly clear - 16.2 1024.2 0.2
30/05:30am SSW 8 13 - - - - 10 Partly cloudy - 16.2 1024.0 0.2
30/05:00am SSW 7 9 - - - - 10 - - 15.8 1023.7 0.2
30/04:30am SSW 6 9 - - - - 10 - - 15.6 1023.3 0.2
30/04:00am SSW 8 13 - - - - 10 - - 15.8 1023.2 0.2
30/03:30am SSW 7 11 - - - - 10 - - 15.8 1023.3 0.2
30/03:00am SSW 8 11 - - - - 10 - - 15.9 1023.2 0.2
30/02:30am SSW 7 10 - - - - 10 - - 15.9 1023.2 0.2
30/02:00am SSW 9 15 - - - - 10 - - 16.2 1023.3 0.2
30/01:30am SSW 9 13 - - - - 10 Partly cloudy - 15.9 1023.6 0.2
30/01:00am SSW 11 16 - - - - 10 Partly cloudy - 16.0 1023.7 0.2
30/12:30am SSW 11 17 - - - - 10 - - 17.0 1023.5 0.0
30/12:00am SSW 9 15 - - - - 10 - - 17.2 1023.6 0.0
 
Date/Time
EST
Wind Sea
Height
m
Swell Vis
km
Cloud Weather Temp
°C
Press
hPa
Rain since
9am
mm
Dir  Spd
kts
Gust
kts
Height
m
Period
s
Dir
29/11:30pm SSW 8 13 - - - - 10 - - 17.1 1023.7 0.0
29/11:00pm SSW 10 16 - - - - 10 - - 17.6 1023.7 0.0
29/10:30pm SSW 9 13 - - - - 10 - - 17.7 1024.0 0.0
29/10:00pm SSW 9 12 - - - - 10 - - 17.5 1024.1 0.0
29/09:30pm SSW 8 11 - - - - 10 - - 17.3 1024.2 0.0
29/09:00pm SSW 6 9 - - - - 10 - - 17.2 1024.1 0.0
29/08:30pm SW 6 8 - - - - 10 - - 17.1 1024.1 0.0
29/08:00pm SSW 7 10 - - - - 10 - - 17.5 1023.9 0.0
29/07:30pm SSW 8 13 - - - - 10 - - 17.8 1023.8 0.0
29/07:00pm SSW 10 14 - - - - 10 - - 18.2 1023.7 0.0
29/06:30pm SSW 9 15 - - - - 10 - - 18.3 1023.4 0.0
29/06:00pm S 5 8 - - - - 10 - - 17.9 1023.1 0.0
29/05:30pm S 9 13 - - - - 10 - - 18.3 1022.8 0.0
29/05:00pm S 11 16 - - - - 10 - - 18.9 1022.5 0.0
29/04:30pm S 10 18 - - - - 10 - - 19.6 1022.2 0.0
29/04:00pm S 11 15 - - - - 10 - - 20.1 1021.9 0.0
29/03:30pm S 11 15 - - - - 10 - - 20.4 1021.6 0.0
29/03:00pm S 10 15 - - - - 10 Mostly cloudy Drizzle 20.5 1021.4 0.0
29/02:30pm S 10 14 - - - - 10 Partly cloudy - 19.8 1021.4 0.0
29/02:00pm SSE 11 17 - - - - 10 Partly cloudy - 20.7 1021.5 0.0
29/01:30pm SSW 11 17 - - - - 10 Partly cloudy - 21.3 1021.4 0.0
29/01:00pm S 11 17 - - - - 10 Partly cloudy - 21.7 1021.4 0.0
29/12:30pm SSE 13 19 - - - - 10 Partly cloudy - 21.6 1021.6 0.0
29/12:00pm S 12 19 - - - - 10 Cloudy - 22.2 1022.0 0.0
29/11:30am S 12 17 - - - - 10 Partly cloudy - 21.2 1022.4 0.0
29/11:00am S 12 18 - - - - 10 Partly cloudy - 21.9 1022.4 0.0
29/10:30am S 15 21 - - - - 10 Partly cloudy - 22.3 1022.7 0.0
29/10:00am S 11 15 - - - - 10 Partly cloudy - 20.6 1023.0 0.0
29/09:30am SSW 11 16 - - - - 10 - - 20.5 1022.9 0.0
29/09:00am SSW 9 14 - - - - 10 Partly cloudy - 20.2 1022.7 0.0
29/08:30am S 7 10 - - - - 10 Partly cloudy - 19.1 1022.5 0.0
29/08:00am S 6 8 - - - - 10 Partly cloudy - 18.5 1022.5 0.0
29/07:30am SSW 8 11 - - - - 10 Partly cloudy - 18.1 1022.2 0.0
29/07:00am SSW 8 12 - - - - 10 Partly cloudy - 17.9 1021.8 0.0
29/06:30am S 6 8 - - - - 10 Partly cloudy - 17.6 1021.5 0.0
29/06:00am SSW 6 9 - - - - 10 Cloudy - 17.9 1021.2 0.0
29/05:30am SW 6 9 - - - - 10 Cloudy - 17.9 1020.8 0.0
29/05:00am SW 7 12 - - - - 10 Cloudy - 17.7 1020.6 0.0
29/04:30am SSW 7 11 - - - - 10 Partly cloudy - 17.5 1020.3 0.0
29/04:08am SSW 8 12 - - - - 10 Partly cloudy - 17.4 1020.3 0.0
29/04:00am SSW 9 13 - - - - 10 Partly cloudy - 17.5 1020.2 0.0
29/03:42am S 9 14 - - - - 10 Partly cloudy - 17.9 1020.3 0.0
29/03:30am SSW 8 13 - - - - 10 Partly cloudy - 17.7 1020.2 0.0
29/03:00am SSW 9 13 - - - - 10 Mostly cloudy - 18.0 1020.1 0.0
29/02:30am SSW 8 11 - - - - 10 Partly cloudy - 18.1 1019.9 0.0
29/02:00am S 7 11 - - - - 10 Partly cloudy - 18.3 1019.9 0.0
29/01:30am SSW 4 7 - - - - 10 - - 17.4 1019.8 0.0
29/01:00am S 3 4 - - - - 10 - - 16.8 1019.7 0.0
29/12:30am SW 2 4 - - - - 10 Partly cloudy - 17.2 1019.9 0.0
29/12:00am SW 5 7 - - - - 10 Cloudy - 17.9 1020.0 0.0
 
Date/Time
EST
Wind Sea
Height
m
Swell Vis
km
Cloud Weather Temp
°C
Press
hPa
Rain since
9am
mm
Dir  Spd
kts
Gust
kts
Height
m
Period
s
Dir
28/11:30pm S 3 5 - - - - 10 Partly cloudy - 17.5 1020.3 0.0
28/11:00pm SSW 5 6 - - - - 10 Partly cloudy - 18.0 1020.7 0.0
28/10:30pm SW 4 6 - - - - 10 Partly cloudy - 18.2 1020.6 0.0
28/10:00pm SW 5 6 - - - - 10 Partly cloudy - 17.9 1020.4 0.0
28/09:30pm SSW 4 6 - - - - 10 Partly cloudy - 18.2 1020.4 0.0
28/09:00pm SW 5 7 - - - - 10 Partly cloudy - 17.6 1020.2 0.0
28/08:30pm SW 4 5 - - - - 10 - - 17.3 1020.2 0.0
28/08:00pm SW 4 5 - - - - 10 - - 17.4 1020.3 0.0
28/07:30pm SW 4 5 - - - - 10 - - 17.5 1020.1 0.0
28/07:00pm S 4 4 - - - - 10 - - 18.4 1019.6 0.0
28/06:30pm SSW 5 6 - - - - 10 - - 18.6 1019.2 0.0
28/06:00pm S 4 5 - - - - 10 Cloudy - 18.6 1018.9 0.0
28/05:30pm SSE 5 6 - - - - 10 - - 18.7 1018.7 0.0
28/05:00pm SSE 7 10 - - - - 10 - - 19.8 1018.3 0.0
28/04:30pm SSE 9 13 - - - - 10 - - 20.8 1018.2 0.0
28/04:00pm SE 11 13 - - - - 10 - - 21.6 1017.9 0.0
28/03:30pm ESE 11 13 - - - - 10 - - 22.3 1017.7 0.0
28/03:00pm ESE 11 13 - - - - 10 - - 22.5 1017.8 0.0
28/02:30pm E 9 11 - - - - 10 - - 23.2 1017.9 0.0
28/02:00pm ESE 9 13 - - - - 10 - - 22.7 1018.0 0.0
28/01:30pm SSE 8 10 - - - - 10 - - 22.8 1018.1 0.0
28/01:00pm SSE 8 11 - - - - 10 - - 23.1 1018.4 0.0
28/12:30pm SSE 7 10 - - - - 10 Partly cloudy - 23.2 1018.8 0.0
28/12:00pm SE 8 11 - - - - 10 Cloudy - 23.1 1019.1 0.0
28/11:30am SSW 4 6 - - - - 10 - - 21.9 1019.5 0.0
28/11:00am SW 5 7 - - - - 10 Partly cloudy - 21.1 1020.1 0.0
28/10:30am SSW 5 7 - - - - 10 - - 20.2 1019.9 0.0
28/10:00am SSW 5 7 - - - - 10 - - 19.8 1020.6 0.0
28/09:30am S 6 8 - - - - 10 - - 19.3 1020.8 0.0
28/09:00am SSE 5 7 - - - - 10 Cloudy - 18.4 1020.9 0.0
28/08:30am SSE 5 6 - - - - 10 - - 18.3 1020.7 0.0
28/08:00am CALM 0 3 - - - - 10 - - 17.7 1020.1 0.0

Other formats

Comma delimited format used in spreadsheet applications
http://www.bom.gov.au/fwo/IDN60701/IDN60701.94592.axf

JavaScript Object Notation format (JSON) in row-major order
http://www.bom.gov.au/fwo/IDN60701/IDN60701.94592.json

Data quality

Most of these data are generated automatically and are frequently updated. Quality checks on data are not normally performed. It is possible for incorrect values to appear. Refer to information at About Latest Weather Observations and please check the disclaimer before using these data.